createdAt,value
2018-07-09T00:00:00.159Z,19.31
2018-07-09T00:01:00.082Z,19.18
2018-07-09T00:01:59.973Z,19.16
2018-07-09T00:02:59.919Z,19.16
2018-07-09T00:03:59.832Z,18.99
2018-07-09T00:04:59.769Z,19.08
2018-07-09T00:05:59.679Z,19.11
2018-07-09T00:06:59.604Z,18.99
2018-07-09T00:07:59.530Z,18.90
2018-07-09T00:08:59.457Z,18.93
2018-07-09T00:09:59.382Z,18.74
2018-07-09T00:10:59.310Z,18.80
2018-07-09T00:11:59.235Z,18.81
2018-07-09T00:12:59.172Z,18.78
2018-07-09T00:13:59.092Z,18.70
2018-07-09T00:14:59.025Z,18.66
2018-07-09T00:15:58.942Z,18.66
2018-07-09T00:16:58.865Z,18.73
2018-07-09T00:17:58.797Z,18.70
2018-07-09T00:18:58.727Z,18.66
2018-07-09T00:19:58.646Z,18.71
2018-07-09T00:20:58.569Z,18.71
2018-07-09T00:21:58.501Z,18.68
2018-07-09T00:22:58.421Z,18.68
2018-07-09T00:23:58.353Z,18.70
2018-07-09T00:24:58.279Z,18.55
2018-07-09T00:25:58.198Z,18.63
2018-07-09T00:26:58.127Z,18.62
2018-07-09T00:27:58.053Z,18.55
2018-07-09T00:28:57.987Z,18.63
2018-07-09T00:29:57.903Z,18.58
2018-07-09T00:30:57.836Z,18.56
2018-07-09T00:31:57.761Z,18.56
2018-07-09T00:32:57.685Z,18.58
2018-07-09T00:33:57.605Z,18.58
2018-07-09T00:34:57.540Z,18.58
2018-07-09T00:35:57.478Z,18.55
2018-07-09T00:36:57.389Z,18.52
2018-07-09T00:37:57.315Z,18.52
2018-07-09T00:38:57.238Z,18.50
2018-07-09T00:39:57.178Z,18.50
2018-07-09T00:40:57.088Z,18.58
2018-07-09T00:41:57.025Z,18.58
2018-07-09T00:42:56.940Z,18.59
2018-07-09T00:43:56.871Z,18.53
2018-07-09T00:44:56.795Z,18.56
2018-07-09T00:45:56.717Z,18.49
2018-07-09T00:46:56.667Z,18.50
2018-07-09T00:47:56.568Z,18.47
2018-07-09T00:48:56.497Z,18.47
2018-07-09T00:49:56.424Z,18.43
2018-07-09T00:50:56.385Z,18.47
2018-07-09T00:51:56.276Z,18.41
2018-07-09T00:52:56.201Z,18.45
2018-07-09T00:53:56.123Z,18.43
2018-07-09T00:54:56.050Z,18.45
2018-07-09T00:55:55.976Z,18.52
2018-07-09T00:56:55.898Z,18.45
2018-07-09T00:57:55.825Z,18.44
2018-07-09T00:58:55.754Z,18.44
2018-07-09T00:59:55.678Z,18.53
2018-07-09T01:00:55.604Z,18.50
2018-07-09T01:01:55.531Z,18.43
2018-07-09T01:02:55.451Z,18.45
2018-07-09T01:03:55.375Z,18.38
2018-07-09T01:04:55.312Z,18.45
2018-07-09T01:05:55.227Z,18.47
2018-07-09T01:06:55.166Z,18.50
2018-07-09T01:07:55.080Z,18.50
2018-07-09T01:08:55.012Z,18.50
2018-07-09T01:09:54.932Z,18.47
2018-07-09T01:10:54.860Z,18.41
2018-07-09T01:11:54.793Z,18.47
2018-07-09T01:12:54.708Z,18.40
2018-07-09T01:13:54.654Z,18.40
2018-07-09T01:14:54.565Z,18.45
2018-07-09T01:15:54.487Z,18.43
2018-07-09T01:16:54.429Z,18.45
2018-07-09T01:17:54.340Z,18.41
2018-07-09T01:18:54.291Z,18.45
2018-07-09T01:19:54.187Z,18.50
2018-07-09T01:20:54.115Z,18.38
2018-07-09T01:21:54.047Z,18.43
2018-07-09T01:22:53.964Z,18.49
2018-07-09T01:23:53.897Z,18.49
2018-07-09T01:24:53.818Z,18.40
2018-07-09T01:25:53.743Z,18.35
2018-07-09T01:26:53.670Z,18.28
2018-07-09T01:27:53.599Z,18.40
2018-07-09T01:28:53.521Z,18.38
2018-07-09T01:29:53.446Z,18.29
2018-07-09T01:30:53.371Z,18.33
2018-07-09T01:31:53.298Z,18.34
2018-07-09T01:32:53.225Z,18.29
2018-07-09T01:33:53.166Z,18.29
2018-07-09T01:34:53.097Z,18.37
2018-07-09T01:35:53.007Z,18.26
2018-07-09T01:36:52.927Z,18.33
2018-07-09T01:37:52.855Z,18.29
2018-07-09T01:38:52.777Z,18.28
2018-07-09T01:39:52.703Z,18.26
2018-07-09T01:40:52.639Z,18.16
2018-07-09T01:41:52.560Z,18.16
2018-07-09T01:42:52.485Z,18.20
2018-07-09T01:43:52.407Z,18.04
2018-07-09T01:44:52.331Z,18.05
2018-07-09T01:45:52.255Z,18.03
2018-07-09T01:46:52.187Z,17.98
2018-07-09T01:47:52.106Z,17.89
2018-07-09T01:48:52.051Z,17.85
2018-07-09T01:49:51.963Z,17.86
2018-07-09T01:50:51.893Z,17.86
2018-07-09T01:51:51.811Z,17.90
2018-07-09T01:52:51.743Z,17.89
2018-07-09T01:53:51.666Z,17.87
2018-07-09T01:54:51.588Z,17.89
2018-07-09T01:55:51.521Z,17.86
2018-07-09T01:56:51.436Z,17.87
2018-07-09T01:57:51.359Z,17.87
2018-07-09T01:58:51.287Z,17.94
2018-07-09T01:59:51.212Z,17.87
2018-07-09T02:00:51.138Z,17.92
2018-07-09T02:01:51.064Z,17.90
2018-07-09T02:02:50.990Z,17.85
2018-07-09T02:03:50.912Z,17.85
2018-07-09T02:04:50.845Z,17.80
2018-07-09T02:05:50.763Z,17.74
2018-07-09T02:06:50.693Z,17.70
2018-07-09T02:07:50.616Z,17.70
2018-07-09T02:08:50.551Z,17.67
2018-07-09T02:09:50.467Z,17.68
2018-07-09T02:10:50.389Z,17.76
2018-07-09T02:11:50.318Z,17.68
2018-07-09T02:12:50.259Z,17.76
2018-07-09T02:13:50.166Z,17.72
2018-07-09T02:14:50.091Z,17.70
2018-07-09T02:15:50.021Z,17.64
2018-07-09T02:16:49.942Z,17.63
2018-07-09T02:17:49.879Z,17.63
2018-07-09T02:18:49.794Z,17.59
2018-07-09T02:19:49.717Z,17.49
2018-07-09T02:20:49.644Z,17.57
2018-07-09T02:21:49.575Z,17.54
2018-07-09T02:22:49.494Z,17.52
2018-07-09T02:23:49.439Z,17.38
2018-07-09T02:24:49.349Z,17.38
2018-07-09T02:25:49.266Z,17.44
2018-07-09T02:26:49.192Z,17.38
2018-07-09T02:27:49.120Z,17.42
2018-07-09T02:28:49.060Z,17.36
2018-07-09T02:29:48.969Z,17.41
2018-07-09T02:30:48.893Z,17.42
2018-07-09T02:31:48.825Z,17.48
2018-07-09T02:32:48.746Z,17.45
2018-07-09T02:33:48.685Z,17.39
2018-07-09T02:34:48.594Z,17.36
2018-07-09T02:35:48.528Z,17.36
2018-07-09T02:36:48.455Z,17.41
2018-07-09T02:37:48.371Z,17.39
2018-07-09T02:38:48.298Z,17.41
2018-07-09T02:39:48.221Z,17.38
2018-07-09T02:40:48.148Z,17.42
2018-07-09T02:41:48.085Z,17.42
2018-07-09T02:42:48.001Z,17.39
2018-07-09T02:43:47.934Z,17.44
2018-07-09T02:44:47.842Z,17.39
2018-07-09T02:45:47.776Z,17.42
2018-07-09T02:46:47.697Z,17.29
2018-07-09T02:47:47.627Z,17.34
2018-07-09T02:48:47.544Z,17.27
2018-07-09T02:49:47.475Z,17.30
2018-07-09T02:50:47.396Z,17.29
2018-07-09T02:51:47.322Z,17.29
2018-07-09T02:52:47.247Z,17.22
2018-07-09T02:53:47.190Z,17.22
2018-07-09T02:54:47.096Z,17.19
2018-07-09T02:55:47.019Z,17.16
2018-07-09T02:56:46.948Z,17.23
2018-07-09T02:57:46.868Z,17.20
2018-07-09T02:58:46.805Z,17.23
2018-07-09T02:59:46.719Z,17.16
2018-07-09T03:00:46.670Z,17.16
2018-07-09T03:01:46.569Z,17.27
2018-07-09T03:02:46.494Z,17.29
2018-07-09T03:03:46.423Z,17.20
2018-07-09T03:04:46.345Z,17.19
2018-07-09T03:05:46.274Z,17.19
2018-07-09T03:06:47.188Z,17.20
2018-07-09T03:07:46.177Z,17.22
2018-07-09T03:08:46.080Z,17.20
2018-07-09T03:09:46.040Z,17.19
2018-07-09T03:10:45.963Z,17.19
2018-07-09T03:11:45.880Z,17.19
2018-07-09T03:12:46.658Z,17.20
2018-07-09T03:13:45.702Z,17.20
2018-07-09T03:14:46.650Z,17.14
2018-07-09T03:15:46.158Z,17.14
2018-07-09T03:16:45.511Z,17.08
2018-07-09T03:17:45.433Z,17.06
2018-07-09T03:18:46.156Z,17.14
2018-07-09T03:19:45.284Z,17.15
2018-07-09T03:20:45.190Z,17.12
2018-07-09T03:21:45.133Z,17.05
2018-07-09T03:22:45.063Z,17.02
2018-07-09T03:23:44.985Z,17.01
2018-07-09T03:24:44.912Z,17.02
2018-07-09T03:25:44.839Z,17.06
2018-07-09T03:26:44.751Z,16.99
2018-07-09T03:27:44.688Z,16.97
2018-07-09T03:28:44.614Z,17.04
2018-07-09T03:29:44.569Z,16.94
2018-07-09T03:30:44.458Z,16.93
2018-07-09T03:31:44.392Z,17.04
2018-07-09T03:32:44.252Z,16.96
2018-07-09T03:33:44.227Z,16.99
2018-07-09T03:34:44.656Z,17.12
2018-07-09T03:35:44.079Z,17.11
2018-07-09T03:36:44.003Z,17.11
2018-07-09T03:37:43.927Z,16.99
2018-07-09T03:38:43.865Z,17.12
2018-07-09T03:39:43.779Z,17.02
2018-07-09T03:40:43.711Z,16.99
2018-07-09T03:41:43.622Z,17.05
2018-07-09T03:42:44.156Z,16.99
2018-07-09T03:43:43.478Z,17.01
2018-07-09T03:44:43.396Z,16.97
2018-07-09T03:45:43.353Z,17.08
2018-07-09T03:46:43.250Z,17.11
2018-07-09T03:47:43.179Z,17.09
2018-07-09T03:48:43.102Z,17.09
2018-07-09T03:49:42.992Z,17.11
2018-07-09T03:50:42.958Z,17.12
2018-07-09T03:51:42.860Z,17.15
2018-07-09T03:52:42.792Z,17.15
2018-07-09T03:53:42.731Z,17.08
2018-07-09T03:54:44.165Z,17.06
2018-07-09T03:55:42.573Z,16.99
2018-07-09T03:56:42.503Z,16.96
2018-07-09T03:57:43.170Z,16.90
2018-07-09T03:58:42.343Z,16.91
2018-07-09T03:59:44.162Z,16.91
2018-07-09T04:00:42.161Z,16.93
2018-07-09T04:01:42.117Z,16.94
2018-07-09T04:02:42.044Z,16.93
2018-07-09T04:03:41.960Z,16.91
2018-07-09T04:04:41.841Z,16.90
2018-07-09T04:05:41.755Z,16.91
2018-07-09T04:06:41.681Z,16.94
2018-07-09T04:07:41.608Z,16.83
2018-07-09T04:08:41.534Z,16.84
2018-07-09T04:09:41.457Z,16.86
2018-07-09T04:10:41.376Z,16.90
2018-07-09T04:11:41.306Z,16.97
2018-07-09T04:12:41.226Z,16.99
2018-07-09T04:13:41.155Z,16.87
2018-07-09T04:14:41.133Z,16.97
2018-07-09T04:15:41.013Z,16.97
2018-07-09T04:16:40.931Z,17.05
2018-07-09T04:17:40.855Z,17.08
2018-07-09T04:18:40.782Z,17.12
2018-07-09T04:19:40.722Z,17.06
2018-07-09T04:20:40.637Z,17.06
2018-07-09T04:21:40.548Z,17.15
2018-07-09T04:22:40.475Z,17.16
2018-07-09T04:23:40.401Z,17.24
2018-07-09T04:24:40.324Z,17.19
2018-07-09T04:25:40.248Z,17.23
2018-07-09T04:26:40.179Z,17.24
2018-07-09T04:27:40.095Z,17.29
2018-07-09T04:28:40.029Z,17.24
2018-07-09T04:29:39.953Z,17.34
2018-07-09T04:30:39.871Z,17.41
2018-07-09T04:31:39.851Z,17.41
2018-07-09T04:32:39.725Z,17.54
2018-07-09T04:33:39.652Z,17.54
2018-07-09T04:34:39.574Z,17.54
2018-07-09T04:35:39.498Z,17.59
2018-07-09T04:36:39.428Z,17.64
2018-07-09T04:37:39.362Z,17.63
2018-07-09T04:38:39.293Z,17.65
2018-07-09T04:39:39.195Z,17.71
2018-07-09T04:40:39.123Z,17.67
2018-07-09T04:41:39.050Z,17.70
2018-07-09T04:42:38.977Z,17.70
2018-07-09T04:43:38.911Z,17.67
2018-07-09T04:44:38.828Z,17.78
2018-07-09T04:45:38.748Z,17.80
2018-07-09T04:46:38.682Z,17.76
2018-07-09T04:47:38.599Z,17.72
2018-07-09T04:48:38.528Z,17.79
2018-07-09T04:49:38.450Z,17.74
2018-07-09T04:50:38.378Z,17.70
2018-07-09T04:51:38.298Z,17.74
2018-07-09T04:52:38.224Z,17.79
2018-07-09T04:53:38.170Z,17.82
2018-07-09T04:54:38.097Z,17.78
2018-07-09T04:55:38.007Z,17.85
2018-07-09T04:56:37.936Z,17.86
2018-07-09T04:57:37.850Z,17.89
2018-07-09T04:58:37.782Z,17.86
2018-07-09T04:59:37.706Z,17.98
2018-07-09T05:00:37.629Z,17.90
2018-07-09T05:01:37.555Z,18.00
2018-07-09T05:02:37.478Z,17.98
2018-07-09T05:03:37.530Z,18.01
2018-07-09T05:04:37.371Z,18.11
2018-07-09T05:05:37.294Z,18.04
2018-07-09T05:06:37.228Z,17.95
2018-07-09T05:07:37.170Z,17.97
2018-07-09T05:08:37.095Z,18.01
2018-07-09T05:09:37.027Z,17.98
2018-07-09T05:10:37.689Z,17.95
2018-07-09T05:11:37.697Z,18.00
2018-07-09T05:12:36.748Z,18.03
2018-07-09T05:13:36.730Z,18.04
2018-07-09T05:14:37.198Z,18.07
2018-07-09T05:15:37.192Z,18.03
2018-07-09T05:16:36.441Z,18.04
2018-07-09T05:17:36.380Z,18.10
2018-07-09T05:18:37.190Z,18.13
2018-07-09T05:19:36.285Z,18.20
2018-07-09T05:20:36.252Z,18.18
2018-07-09T05:21:36.139Z,18.25
2018-07-09T05:22:36.059Z,18.29
2018-07-09T05:23:35.929Z,18.40
2018-07-09T05:24:35.911Z,18.33
2018-07-09T05:25:35.836Z,18.40
2018-07-09T05:26:35.754Z,18.47
2018-07-09T05:27:35.641Z,18.45
2018-07-09T05:28:35.615Z,18.58
2018-07-09T05:29:35.524Z,18.62
2018-07-09T05:30:35.457Z,18.65
2018-07-09T05:31:36.186Z,18.66
2018-07-09T05:32:35.263Z,18.71
2018-07-09T05:33:35.248Z,18.77
2018-07-09T05:34:35.166Z,18.81
2018-07-09T05:35:35.687Z,18.81
2018-07-09T05:36:35.002Z,18.86
2018-07-09T05:37:35.696Z,18.84
2018-07-09T05:38:34.870Z,18.80
2018-07-09T05:39:34.789Z,18.83
2018-07-09T05:40:34.690Z,18.89
2018-07-09T05:41:34.626Z,19.02
2018-07-09T05:42:34.533Z,19.04
2018-07-09T05:43:34.439Z,19.04
2018-07-09T05:44:34.360Z,19.09
2018-07-09T05:45:34.294Z,19.07
2018-07-09T05:46:34.224Z,19.19
2018-07-09T05:47:34.139Z,19.27
2018-07-09T05:48:34.067Z,19.26
2018-07-09T05:49:33.989Z,19.26
2018-07-09T05:50:33.921Z,19.29
2018-07-09T05:51:33.848Z,19.34
2018-07-09T05:52:33.767Z,19.40
2018-07-09T05:53:33.703Z,19.45
2018-07-09T05:54:33.619Z,19.41
2018-07-09T05:55:33.559Z,19.51
2018-07-09T05:56:33.477Z,19.48
2018-07-09T05:57:33.400Z,19.59
2018-07-09T05:58:33.344Z,19.62
2018-07-09T05:59:33.252Z,19.64
2018-07-09T06:00:33.195Z,19.64
2018-07-09T06:01:33.107Z,19.81
2018-07-09T06:02:33.036Z,19.81
2018-07-09T06:03:32.967Z,19.85
2018-07-09T06:04:32.971Z,19.89
2018-07-09T06:05:32.827Z,19.95
2018-07-09T06:06:32.747Z,20.00
2018-07-09T06:07:32.663Z,20.02
2018-07-09T06:08:32.598Z,20.10
2018-07-09T06:09:32.528Z,20.07
2018-07-09T06:10:32.468Z,20.16
2018-07-09T06:11:32.430Z,20.13
2018-07-09T06:12:32.302Z,20.07
2018-07-09T06:13:32.231Z,20.21
2018-07-09T06:14:32.153Z,20.22
2018-07-09T06:15:32.085Z,20.22
2018-07-09T06:16:32.005Z,20.25
2018-07-09T06:17:31.935Z,20.26
2018-07-09T06:18:31.859Z,20.25
2018-07-09T06:19:31.889Z,20.32
2018-07-09T06:20:31.719Z,20.37
2018-07-09T06:21:31.639Z,20.39
2018-07-09T06:22:31.584Z,20.39
2018-07-09T06:23:31.514Z,20.44
2018-07-09T06:24:31.429Z,20.47
2018-07-09T06:25:31.357Z,20.48
2018-07-09T06:26:31.278Z,20.55
2018-07-09T06:27:31.205Z,20.55
2018-07-09T06:28:31.130Z,20.59
2018-07-09T06:29:31.063Z,20.66
2018-07-09T06:30:30.985Z,20.70
2018-07-09T06:31:30.961Z,20.70
2018-07-09T06:32:30.848Z,20.75
2018-07-09T06:33:30.776Z,20.72
2018-07-09T06:34:30.696Z,20.77
2018-07-09T06:35:30.621Z,20.82
2018-07-09T06:36:30.553Z,20.80
2018-07-09T06:37:30.478Z,20.82
2018-07-09T06:38:30.405Z,20.84
2018-07-09T06:39:30.333Z,20.93
2018-07-09T06:40:30.264Z,20.96
2018-07-09T06:41:30.187Z,20.99
2018-07-09T06:42:30.121Z,20.96
2018-07-09T06:43:30.047Z,21.06
2018-07-09T06:44:29.976Z,21.11
2018-07-09T06:45:29.917Z,21.12
2018-07-09T06:46:29.858Z,21.12
2018-07-09T06:47:29.762Z,21.24
2018-07-09T06:48:29.679Z,21.21
2018-07-09T06:49:29.652Z,21.27
2018-07-09T06:50:29.581Z,21.29
2018-07-09T06:51:29.466Z,21.33
2018-07-09T06:52:29.393Z,21.27
2018-07-09T06:53:29.353Z,21.48
2018-07-09T06:54:29.242Z,21.48
2018-07-09T06:55:29.173Z,21.48
2018-07-09T06:56:29.104Z,21.52
2018-07-09T06:57:29.035Z,21.50
2018-07-09T06:58:28.956Z,21.48
2018-07-09T06:59:28.883Z,21.60
2018-07-09T07:00:28.812Z,21.64
2018-07-09T07:01:28.744Z,21.62
2018-07-09T07:02:28.711Z,21.67
2018-07-09T07:03:28.607Z,21.69
2018-07-09T07:04:28.524Z,21.75
2018-07-09T07:05:28.450Z,21.70
2018-07-09T07:06:28.392Z,21.77
2018-07-09T07:07:28.317Z,21.77
2018-07-09T07:08:28.243Z,21.79
2018-07-09T07:09:28.169Z,21.77
2018-07-09T07:10:28.109Z,21.80
2018-07-09T07:11:28.019Z,21.95
2018-07-09T07:12:27.951Z,21.80
2018-07-09T07:13:27.883Z,21.93
2018-07-09T07:14:27.903Z,22.00
2018-07-09T07:15:27.732Z,22.00
2018-07-09T07:16:27.662Z,22.06
2018-07-09T07:17:27.593Z,22.00
2018-07-09T07:18:27.584Z,22.13
2018-07-09T07:19:27.461Z,22.04
2018-07-09T07:20:27.373Z,22.14
2018-07-09T07:21:27.303Z,22.10
2018-07-09T07:22:27.237Z,22.23
2018-07-09T07:23:27.156Z,22.17
2018-07-09T07:24:27.104Z,22.28
2018-07-09T07:25:27.014Z,22.28
2018-07-09T07:26:27.013Z,22.30
2018-07-09T07:27:26.887Z,22.33
2018-07-09T07:28:26.802Z,22.39
2018-07-09T07:29:26.729Z,22.39
2018-07-09T07:30:26.664Z,22.51
2018-07-09T07:31:26.594Z,22.50
2018-07-09T07:32:26.517Z,22.54
2018-07-09T07:33:26.449Z,22.59
2018-07-09T07:34:26.379Z,22.66
2018-07-09T07:35:26.301Z,22.63
2018-07-09T07:36:26.254Z,22.60
2018-07-09T07:37:26.163Z,22.65
2018-07-09T07:38:26.090Z,22.72
2018-07-09T07:39:26.081Z,22.70
2018-07-09T07:40:25.947Z,22.73
2018-07-09T07:41:25.876Z,22.66
2018-07-09T07:42:25.802Z,22.73
2018-07-09T07:43:25.736Z,22.78
2018-07-09T07:44:25.656Z,22.84
2018-07-09T07:45:25.592Z,22.73
2018-07-09T07:46:25.516Z,22.78
2018-07-09T07:47:25.445Z,22.83
2018-07-09T07:48:25.398Z,22.80
2018-07-09T07:49:25.304Z,22.80
2018-07-09T07:50:25.316Z,22.87
2018-07-09T07:51:25.162Z,22.91
2018-07-09T07:52:25.088Z,22.88
2018-07-09T07:53:25.016Z,22.96
2018-07-09T07:54:24.954Z,22.91
2018-07-09T07:55:24.873Z,22.98
2018-07-09T07:56:24.804Z,22.96
2018-07-09T07:57:24.737Z,22.94
2018-07-09T07:58:24.656Z,23.02
2018-07-09T07:59:24.586Z,23.08
2018-07-09T08:00:24.524Z,23.03
2018-07-09T08:01:24.447Z,23.08
2018-07-09T08:02:24.384Z,23.12
2018-07-09T08:03:24.302Z,23.23
2018-07-09T08:04:24.239Z,23.24
2018-07-09T08:05:24.163Z,23.15
2018-07-09T08:06:24.089Z,23.27
2018-07-09T08:07:24.022Z,23.32
2018-07-09T08:08:23.947Z,23.39
2018-07-09T08:09:23.933Z,23.17
2018-07-09T08:10:23.832Z,23.15
2018-07-09T08:11:47.725Z,23.18
2018-07-09T08:13:29.534Z,23.15
2018-07-09T08:14:23.524Z,23.23
2018-07-09T08:15:23.453Z,23.20
2018-07-09T08:16:23.388Z,23.20
2018-07-09T08:17:23.311Z,23.27
2018-07-09T08:18:23.239Z,23.40
2018-07-09T08:19:23.181Z,23.39
2018-07-09T08:20:23.103Z,23.50
2018-07-09T08:21:23.027Z,23.47
2018-07-09T08:22:22.960Z,23.58
2018-07-09T08:23:22.885Z,23.56
2018-07-09T08:24:22.815Z,23.58
2018-07-09T08:25:22.827Z,23.62
2018-07-09T08:26:22.697Z,23.51
2018-07-09T08:27:22.608Z,23.55
2018-07-09T08:28:22.534Z,23.59
2018-07-09T08:29:22.487Z,23.66
2018-07-09T08:30:22.388Z,23.69
2018-07-09T08:31:22.463Z,23.71
2018-07-09T08:32:22.341Z,23.69
2018-07-09T08:33:22.212Z,23.69
2018-07-09T08:34:22.184Z,23.71
2018-07-09T08:35:22.093Z,23.84
2018-07-09T08:36:22.067Z,23.80
2018-07-09T08:37:21.904Z,23.76
2018-07-09T08:38:21.895Z,23.84
2018-07-09T08:39:23.742Z,23.88
2018-07-09T08:40:21.725Z,24.01
2018-07-09T08:41:21.684Z,23.99
2018-07-09T08:42:21.545Z,24.05
2018-07-09T08:43:21.490Z,24.14
2018-07-09T08:44:21.453Z,24.14
2018-07-09T08:45:21.346Z,24.11
2018-07-09T08:46:21.333Z,24.10
2018-07-09T08:47:21.298Z,24.23
2018-07-09T08:48:21.196Z,24.10
2018-07-09T08:49:21.124Z,24.32
2018-07-09T08:50:21.758Z,24.36
2018-07-09T08:51:21.760Z,24.43
2018-07-09T08:52:20.906Z,24.50
2018-07-09T08:53:21.767Z,24.58
2018-07-09T08:54:20.764Z,24.60
2018-07-09T08:55:20.759Z,24.68
2018-07-09T08:56:20.634Z,24.61
2018-07-09T08:57:20.564Z,24.69
2018-07-09T08:58:20.494Z,24.61
2018-07-09T08:59:20.419Z,24.76
2018-07-09T09:00:20.353Z,24.68
2018-07-09T09:01:21.204Z,24.77
2018-07-09T09:02:20.205Z,24.91
2018-07-09T09:03:20.136Z,24.92
2018-07-09T09:04:20.758Z,24.98
2018-07-09T09:05:20.759Z,24.92
2018-07-09T09:06:19.930Z,25.10
2018-07-09T09:07:19.859Z,25.07
2018-07-09T09:08:19.796Z,25.11
2018-07-09T09:09:19.721Z,25.13
2018-07-09T09:10:19.660Z,25.16
2018-07-09T09:11:19.587Z,25.17
2018-07-09T09:12:20.253Z,25.28
2018-07-09T09:13:20.266Z,25.32
2018-07-09T09:14:19.372Z,25.40
2018-07-09T09:15:19.303Z,25.33
2018-07-09T09:16:19.236Z,25.36
2018-07-09T09:17:19.171Z,25.40
2018-07-09T09:18:19.090Z,25.35
2018-07-09T09:19:19.025Z,25.36
2018-07-09T09:20:18.977Z,25.38
2018-07-09T09:21:18.895Z,25.41
2018-07-09T09:22:18.825Z,25.33
2018-07-09T09:23:20.264Z,25.41
2018-07-09T09:24:18.685Z,25.50
2018-07-09T09:25:18.618Z,25.50
2018-07-09T09:26:18.548Z,25.35
2018-07-09T09:27:18.485Z,25.44
2018-07-09T09:28:18.409Z,25.35
2018-07-09T09:29:18.338Z,25.48
2018-07-09T09:30:18.267Z,25.43
2018-07-09T09:31:18.299Z,25.47
2018-07-09T09:32:18.142Z,25.48
2018-07-09T09:33:18.007Z,25.47
2018-07-09T09:34:17.993Z,25.59
2018-07-09T09:35:17.923Z,25.65
2018-07-09T09:36:17.859Z,25.66
2018-07-09T09:37:17.792Z,25.73
2018-07-09T09:38:17.715Z,25.85
2018-07-09T09:39:18.217Z,25.87
2018-07-09T09:40:19.270Z,25.90
2018-07-09T09:41:17.515Z,25.96
2018-07-09T09:42:17.443Z,25.85
2018-07-09T09:43:17.384Z,25.91
2018-07-09T09:44:17.302Z,25.95
2018-07-09T09:45:17.243Z,25.93
2018-07-09T09:46:17.773Z,26.03
2018-07-09T09:47:18.760Z,25.98
2018-07-09T09:48:18.762Z,26.00
2018-07-09T09:49:16.967Z,25.93
2018-07-09T09:50:16.900Z,25.95
2018-07-09T09:51:17.780Z,25.93
2018-07-09T09:52:16.756Z,25.98
2018-07-09T09:53:16.619Z,25.95
2018-07-09T09:54:16.551Z,25.90
2018-07-09T09:55:16.493Z,25.84
2018-07-09T09:56:16.415Z,25.85
2018-07-09T09:57:16.358Z,25.83
2018-07-09T09:58:16.282Z,25.88
2018-07-09T09:59:16.213Z,25.81
2018-07-09T10:00:16.139Z,25.81
2018-07-09T10:01:16.078Z,25.78
2018-07-09T10:02:16.002Z,25.70
2018-07-09T10:03:15.932Z,25.77
2018-07-09T10:04:15.867Z,25.75
2018-07-09T10:05:15.799Z,25.77
2018-07-09T10:06:15.728Z,25.85
2018-07-09T10:07:15.681Z,25.78
2018-07-09T10:08:15.592Z,25.93
2018-07-09T10:09:15.522Z,26.02
2018-07-09T10:10:15.458Z,26.02
2018-07-09T10:11:15.386Z,26.15
2018-07-09T10:12:15.323Z,26.19
2018-07-09T10:13:15.247Z,26.19
2018-07-09T10:14:15.195Z,26.34
2018-07-09T10:15:15.108Z,26.51
2018-07-09T10:16:15.038Z,26.44
2018-07-09T10:17:14.974Z,26.51
2018-07-09T10:18:14.906Z,26.45
2018-07-09T10:19:14.840Z,26.56
2018-07-09T10:20:14.769Z,26.56
2018-07-09T10:21:14.705Z,26.58
2018-07-09T10:22:14.634Z,26.56
2018-07-09T10:23:14.601Z,26.59
2018-07-09T10:24:14.504Z,26.60
2018-07-09T10:25:14.429Z,26.62
2018-07-09T10:26:14.362Z,26.65
2018-07-09T10:27:14.303Z,26.63
2018-07-09T10:28:14.234Z,26.60
2018-07-09T10:29:14.157Z,26.73
2018-07-09T10:30:14.089Z,26.59
2018-07-09T10:31:14.725Z,26.62
2018-07-09T10:32:13.980Z,26.63
2018-07-09T10:33:13.887Z,26.66
2018-07-09T10:34:13.826Z,26.77
2018-07-09T10:35:13.747Z,26.88
2018-07-09T10:36:13.681Z,26.89
2018-07-09T10:37:13.612Z,26.97
2018-07-09T10:38:13.545Z,27.02
2018-07-09T10:39:13.481Z,26.99
2018-07-09T10:40:13.411Z,27.10
2018-07-09T10:41:13.368Z,27.15
2018-07-09T10:42:13.276Z,27.25
2018-07-09T10:43:13.207Z,27.39
2018-07-09T10:44:13.137Z,27.47
2018-07-09T10:45:13.069Z,27.58
2018-07-09T10:46:13.003Z,27.60
2018-07-09T10:47:12.960Z,27.68
2018-07-09T10:48:12.868Z,27.67
2018-07-09T10:49:12.810Z,27.68
2018-07-09T10:50:12.737Z,27.71
2018-07-09T10:51:12.669Z,27.75
2018-07-09T10:52:12.599Z,27.74
2018-07-09T10:53:12.546Z,27.74
2018-07-09T10:54:12.463Z,27.70
2018-07-09T10:55:12.414Z,27.68
2018-07-09T10:56:12.350Z,27.54
2018-07-09T10:57:12.264Z,27.42
2018-07-09T10:58:12.195Z,27.35
2018-07-09T10:59:12.128Z,27.33
2018-07-09T11:00:12.066Z,27.21
2018-07-09T11:01:12.007Z,27.26
2018-07-09T11:02:11.931Z,27.12
2018-07-09T11:03:11.863Z,27.10
2018-07-09T11:04:11.798Z,27.05
2018-07-09T11:05:11.728Z,27.03
2018-07-09T11:06:11.658Z,27.00
2018-07-09T11:07:11.589Z,27.07
2018-07-09T11:08:11.522Z,26.99
2018-07-09T11:09:11.453Z,27.11
2018-07-09T11:10:11.408Z,27.14
2018-07-09T11:11:11.337Z,27.14
2018-07-09T11:12:11.257Z,27.17
2018-07-09T11:13:11.186Z,27.17
2018-07-09T11:14:11.114Z,27.15
2018-07-09T11:15:11.046Z,27.00
2018-07-09T11:16:11.020Z,27.05
2018-07-09T11:17:10.917Z,27.02
2018-07-09T11:18:10.841Z,26.96
2018-07-09T11:19:10.784Z,27.00
2018-07-09T11:20:10.712Z,26.99
2018-07-09T11:21:10.644Z,26.99
2018-07-09T11:22:10.587Z,27.08
2018-07-09T11:23:10.516Z,27.05
2018-07-09T11:24:10.437Z,27.00
2018-07-09T11:25:10.370Z,26.89
2018-07-09T11:26:10.300Z,26.88
2018-07-09T11:27:10.235Z,26.92
2018-07-09T11:28:10.164Z,26.84
2018-07-09T11:29:10.107Z,26.83
2018-07-09T11:30:10.028Z,26.77
2018-07-09T11:31:09.963Z,26.77
2018-07-09T11:32:09.893Z,26.75
2018-07-09T11:33:09.830Z,26.60
2018-07-09T11:34:09.758Z,26.75
2018-07-09T11:35:09.695Z,26.55
2018-07-09T11:36:09.666Z,26.53
2018-07-09T11:37:09.563Z,26.55
2018-07-09T11:38:09.508Z,26.52
2018-07-09T11:39:09.423Z,26.53
2018-07-09T11:40:09.374Z,26.56
2018-07-09T11:41:09.286Z,26.56
2018-07-09T11:42:09.274Z,26.60
2018-07-09T11:43:09.145Z,26.56
2018-07-09T11:44:09.078Z,26.51
2018-07-09T11:45:09.007Z,26.56
2018-07-09T11:46:08.940Z,26.59
2018-07-09T11:47:08.877Z,26.84
2018-07-09T11:48:08.810Z,26.80
2018-07-09T11:49:08.737Z,26.93
2018-07-09T11:50:08.668Z,26.85
2018-07-09T11:51:08.599Z,26.89
2018-07-09T11:52:08.580Z,26.99
2018-07-09T11:53:08.469Z,27.03
2018-07-09T11:54:08.406Z,27.15
2018-07-09T11:55:08.333Z,27.26
2018-07-09T11:56:08.260Z,27.39
2018-07-09T11:57:08.195Z,27.36
2018-07-09T11:58:08.122Z,27.32
2018-07-09T11:59:08.079Z,27.42
2018-07-09T12:00:07.989Z,27.40
2018-07-09T12:01:07.920Z,27.51
2018-07-09T12:02:07.867Z,27.58
2018-07-09T12:03:07.792Z,27.58
2018-07-09T12:04:07.716Z,27.59
2018-07-09T12:05:07.650Z,27.60
2018-07-09T12:06:07.585Z,27.60
2018-07-09T12:07:07.513Z,27.63
2018-07-09T12:08:07.453Z,27.47
2018-07-09T12:09:07.378Z,27.51
2018-07-09T12:10:07.339Z,27.51
2018-07-09T12:11:07.247Z,27.54
2018-07-09T12:12:07.196Z,27.45
2018-07-09T12:13:07.109Z,27.48
2018-07-09T12:14:07.043Z,27.55
2018-07-09T12:15:06.996Z,27.63
2018-07-09T12:16:06.912Z,27.54
2018-07-09T12:17:06.860Z,27.51
2018-07-09T12:18:06.773Z,27.63
2018-07-09T12:19:06.712Z,27.60
2018-07-09T12:20:06.660Z,27.63
2018-07-09T12:21:06.578Z,27.63
2018-07-09T12:22:06.508Z,27.70
2018-07-09T12:23:06.446Z,27.67
2018-07-09T12:24:06.372Z,27.52
2018-07-09T12:25:06.303Z,27.47
2018-07-09T12:26:06.241Z,27.40
2018-07-09T12:27:06.169Z,27.48
2018-07-09T12:28:06.107Z,27.60
2018-07-09T12:29:06.141Z,27.58
2018-07-09T12:30:05.968Z,27.63
2018-07-09T12:31:05.917Z,27.55
2018-07-09T12:32:05.832Z,27.71
2018-07-09T12:33:05.766Z,27.63
2018-07-09T12:34:05.695Z,27.64
2018-07-09T12:35:05.635Z,27.71
2018-07-09T12:36:05.619Z,27.78
2018-07-09T12:37:05.495Z,27.95
2018-07-09T12:38:05.430Z,27.89
2018-07-09T12:39:05.365Z,27.96
2018-07-09T12:40:05.300Z,27.96
2018-07-09T12:41:05.232Z,28.00
2018-07-09T12:42:05.163Z,28.04
2018-07-09T12:43:05.091Z,28.12
2018-07-09T12:44:05.027Z,28.20
2018-07-09T12:45:04.972Z,28.27
2018-07-09T12:46:04.896Z,28.38
2018-07-09T12:47:04.824Z,28.41
2018-07-09T12:48:04.764Z,28.51
2018-07-09T12:49:04.690Z,28.57
2018-07-09T12:50:04.625Z,28.67
2018-07-09T12:51:04.557Z,28.85
2018-07-09T12:52:04.504Z,28.88